GMMX/RAK METAR and TAF weather

Enter ICAO airport designator
Station Type Date Time Source
GMMX METAR 2021/05/12 04:30 UTC NOAA

GMMX 120430Z VRB01KT CAVOK 13/07 Q1020 NOSIG


Station Type Date Time Source
GMMX Decoded METAR 2021/05/12 04:30 UTC NOAA

Marrakech, Morocco (GMMX) 31-37N 008-02W 466M
May 12, 2021 - 12:30 AM EDT / 2021.05.12 0430 UTC
Wind: Variable at 1 MPH (1 KT):0
Visibility: greater than 7 mile(s):0
Temperature: 55 F (13 C)
Dew Point: 44 F (7 C)
Relative Humidity: 66%
Pressure (altimeter): 30.12 in. Hg (1020 hPa)
ob: GMMX 120430Z VRB01KT CAVOK 13/07 Q1020 NOSIG
cycle: 4

Station Type Date Time Source
GMMX TAF 2021/05/11 18:18 UTC NOAA

TAF GMMX 111700Z 1118/1224 04006KT 8000 NSC

Example: see airport list